sensor_id;sensor_type;location;lat;lon;timestamp;temperature;humidity
70734;DHT22;58320;48.804;9.252;2022-12-18T00:01:21;-8.80;95.20
70734;DHT22;58320;48.804;9.252;2022-12-18T00:03:54;-8.80;94.70
70734;DHT22;58320;48.804;9.252;2022-12-18T00:06:21;-8.90;94.60
70734;DHT22;58320;48.804;9.252;2022-12-18T00:08:48;-8.90;94.40
70734;DHT22;58320;48.804;9.252;2022-12-18T00:11:19;-8.90;94.60
70734;DHT22;58320;48.804;9.252;2022-12-18T00:13:46;-8.90;95.10
70734;DHT22;58320;48.804;9.252;2022-12-18T00:16:15;-8.90;95.00
70734;DHT22;58320;48.804;9.252;2022-12-18T00:18:43;-8.90;94.70
70734;DHT22;58320;48.804;9.252;2022-12-18T00:21:11;-8.90;94.90
70734;DHT22;58320;48.804;9.252;2022-12-18T00:23:39;-8.90;95.00
70734;DHT22;58320;48.804;9.252;2022-12-18T00:26:11;-8.90;94.90
70734;DHT22;58320;48.804;9.252;2022-12-18T00:28:43;-8.90;94.50
70734;DHT22;58320;48.804;9.252;2022-12-18T00:31:12;-9.00;94.30
70734;DHT22;58320;48.804;9.252;2022-12-18T00:33:40;-9.00;94.10
70734;DHT22;58320;48.804;9.252;2022-12-18T00:36:09;-9.10;94.20
70734;DHT22;58320;48.804;9.252;2022-12-18T00:38:37;-9.10;94.50
70734;DHT22;58320;48.804;9.252;2022-12-18T00:41:03;-9.10;94.80
70734;DHT22;58320;48.804;9.252;2022-12-18T00:43:29;-9.00;95.00
70734;DHT22;58320;48.804;9.252;2022-12-18T00:45:55;-9.00;95.10
70734;DHT22;58320;48.804;9.252;2022-12-18T00:48:22;-9.00;94.90
70734;DHT22;58320;48.804;9.252;2022-12-18T00:50:49;-9.00;94.80
70734;DHT22;58320;48.804;9.252;2022-12-18T00:53:15;-9.10;94.70
70734;DHT22;58320;48.804;9.252;2022-12-18T00:55:42;-9.10;94.70
70734;DHT22;58320;48.804;9.252;2022-12-18T00:58:09;-9.10;94.70
70734;DHT22;58320;48.804;9.252;2022-12-18T01:00:36;-9.20;94.70
70734;DHT22;58320;48.804;9.252;2022-12-18T01:03:02;-9.10;94.80
70734;DHT22;58320;48.804;9.252;2022-12-18T01:05:28;-9.20;94.70
70734;DHT22;58320;48.804;9.252;2022-12-18T01:07:55;-9.20;94.60
70734;DHT22;58320;48.804;9.252;2022-12-18T01:10:22;-9.20;94.80
70734;DHT22;58320;48.804;9.252;2022-12-18T01:12:48;-9.20;94.90
70734;DHT22;58320;48.804;9.252;2022-12-18T01:15:15;-9.10;95.10
70734;DHT22;58320;48.804;9.252;2022-12-18T01:17:42;-9.10;95.30
70734;DHT22;58320;48.804;9.252;2022-12-18T01:20:10;-9.10;95.50
70734;DHT22;58320;48.804;9.252;2022-12-18T01:22:37;-9.10;95.50
70734;DHT22;58320;48.804;9.252;2022-12-18T01:25:04;-9.00;95.40
70734;DHT22;58320;48.804;9.252;2022-12-18T01:27:30;-9.00;95.30
70734;DHT22;58320;48.804;9.252;2022-12-18T01:29:56;-9.00;95.50
70734;DHT22;58320;48.804;9.252;2022-12-18T01:32:22;-9.00;95.70
70734;DHT22;58320;48.804;9.252;2022-12-18T01:34:48;-9.00;95.60
70734;DHT22;58320;48.804;9.252;2022-12-18T01:37:14;-8.90;95.50
70734;DHT22;58320;48.804;9.252;2022-12-18T01:39:40;-8.90;95.50
70734;DHT22;58320;48.804;9.252;2022-12-18T01:42:15;-8.90;95.40
70734;DHT22;58320;48.804;9.252;2022-12-18T01:49:52;-8.90;95.50
70734;DHT22;58320;48.804;9.252;2022-12-18T01:52:20;-8.90;95.40
70734;DHT22;58320;48.804;9.252;2022-12-18T01:54:48;-8.90;95.20
70734;DHT22;58320;48.804;9.252;2022-12-18T01:57:15;-8.90;95.10
70734;DHT22;58320;48.804;9.252;2022-12-18T01:59:43;-8.90;95.10
70734;DHT22;58320;48.804;9.252;2022-12-18T02:02:11;-9.00;95.10
70734;DHT22;58320;48.804;9.252;2022-12-18T02:04:37;-9.00;95.20
70734;DHT22;58320;48.804;9.252;2022-12-18T02:12:21;-8.90;95.50
70734;DHT22;58320;48.804;9.252;2022-12-18T02:14:56;-8.90;95.60
70734;DHT22;58320;48.804;9.252;2022-12-18T02:20:45;-8.80;95.40
70734;DHT22;58320;48.804;9.252;2022-12-18T02:26:20;-8.80;95.60
70734;DHT22;58320;48.804;9.252;2022-12-18T02:28:57;-8.80;95.60
70734;DHT22;58320;48.804;9.252;2022-12-18T02:31:30;-8.70;95.60
70734;DHT22;58320;48.804;9.252;2022-12-18T02:34:01;-8.70;95.50
70734;DHT22;58320;48.804;9.252;2022-12-18T02:36:29;-8.70;95.50
70734;DHT22;58320;48.804;9.252;2022-12-18T02:38:58;-8.70;95.30
70734;DHT22;58320;48.804;9.252;2022-12-18T02:41:25;-8.70;95.30
70734;DHT22;58320;48.804;9.252;2022-12-18T02:44:00;-8.70;95.20
70734;DHT22;58320;48.804;9.252;2022-12-18T02:46:35;-8.60;95.00
70734;DHT22;58320;48.804;9.252;2022-12-18T02:49:17;-8.60;94.80
70734;DHT22;58320;48.804;9.252;2022-12-18T03:00:18;-8.50;94.60
70734;DHT22;58320;48.804;9.252;2022-12-18T03:02:58;-8.50;94.80
70734;DHT22;58320;48.804;9.252;2022-12-18T03:05:42;-8.50;94.70
70734;DHT22;58320;48.804;9.252;2022-12-18T03:08:31;-8.50;94.40
70734;DHT22;58320;48.804;9.252;2022-12-18T03:11:06;-8.50;94.10
70734;DHT22;58320;48.804;9.252;2022-12-18T03:16:00;-8.50;93.80
70734;DHT22;58320;48.804;9.252;2022-12-18T03:18:33;-8.40;93.60
70734;DHT22;58320;48.804;9.252;2022-12-18T03:21:05;-8.50;93.60
70734;DHT22;58320;48.804;9.252;2022-12-18T03:23:48;-8.50;93.80
70734;DHT22;58320;48.804;9.252;2022-12-18T03:26:18;-8.40;94.30
70734;DHT22;58320;48.804;9.252;2022-12-18T03:28:51;-8.40;94.30
70734;DHT22;58320;48.804;9.252;2022-12-18T03:31:21;-8.30;94.20
70734;DHT22;58320;48.804;9.252;2022-12-18T03:34:13;-8.20;93.50
70734;DHT22;58320;48.804;9.252;2022-12-18T03:39:07;-8.10;92.90
70734;DHT22;58320;48.804;9.252;2022-12-18T03:41:43;-8.30;92.80
70734;DHT22;58320;48.804;9.252;2022-12-18T03:47:42;-8.30;92.80
70734;DHT22;58320;48.804;9.252;2022-12-18T03:55:56;-8.30;92.70
70734;DHT22;58320;48.804;9.252;2022-12-18T03:58:25;-8.30;92.90
70734;DHT22;58320;48.804;9.252;2022-12-18T04:00:55;-8.30;92.90
70734;DHT22;58320;48.804;9.252;2022-12-18T04:03:23;-8.20;92.90
70734;DHT22;58320;48.804;9.252;2022-12-18T04:05:51;-8.20;92.80
70734;DHT22;58320;48.804;9.252;2022-12-18T04:08:19;-8.30;92.90
70734;DHT22;58320;48.804;9.252;2022-12-18T04:10:46;-8.20;92.90
70734;DHT22;58320;48.804;9.252;2022-12-18T04:13:12;-8.20;92.80
70734;DHT22;58320;48.804;9.252;2022-12-18T04:15:38;-8.20;92.60
70734;DHT22;58320;48.804;9.252;2022-12-18T04:18:05;-8.30;92.50
70734;DHT22;58320;48.804;9.252;2022-12-18T04:20:30;-8.30;92.40
70734;DHT22;58320;48.804;9.252;2022-12-18T04:22:56;-8.40;91.70
70734;DHT22;58320;48.804;9.252;2022-12-18T04:25:22;-8.60;91.50
70734;DHT22;58320;48.804;9.252;2022-12-18T04:27:48;-8.70;91.30
70734;DHT22;58320;48.804;9.252;2022-12-18T04:30:13;-8.80;91.10
70734;DHT22;58320;48.804;9.252;2022-12-18T04:32:39;-8.90;91.10
70734;DHT22;58320;48.804;9.252;2022-12-18T04:35:05;-9.00;91.20
70734;DHT22;58320;48.804;9.252;2022-12-18T04:37:35;-9.00;91.30
70734;DHT22;58320;48.804;9.252;2022-12-18T04:40:01;-9.10;90.90
70734;DHT22;58320;48.804;9.252;2022-12-18T04:42:27;-9.20;91.00
70734;DHT22;58320;48.804;9.252;2022-12-18T04:44:53;-9.20;90.60
70734;DHT22;58320;48.804;9.252;2022-12-18T04:47:18;-9.30;90.50
70734;DHT22;58320;48.804;9.252;2022-12-18T04:49:44;-9.40;90.80
70734;DHT22;58320;48.804;9.252;2022-12-18T04:52:10;-9.40;91.50
70734;DHT22;58320;48.804;9.252;2022-12-18T04:54:36;-9.40;91.90
70734;DHT22;58320;48.804;9.252;2022-12-18T04:57:01;-9.30;92.40
70734;DHT22;58320;48.804;9.252;2022-12-18T04:59:27;-9.30;92.30
70734;DHT22;58320;48.804;9.252;2022-12-18T05:01:53;-9.30;92.20
70734;DHT22;58320;48.804;9.252;2022-12-18T05:04:19;-9.30;92.40
70734;DHT22;58320;48.804;9.252;2022-12-18T05:06:44;-9.30;92.10
70734;DHT22;58320;48.804;9.252;2022-12-18T05:09:10;-9.30;91.80
70734;DHT22;58320;48.804;9.252;2022-12-18T05:11:36;-9.40;91.60
70734;DHT22;58320;48.804;9.252;2022-12-18T05:14:02;-9.50;91.50
70734;DHT22;58320;48.804;9.252;2022-12-18T05:16:28;-9.50;91.80
70734;DHT22;58320;48.804;9.252;2022-12-18T05:18:54;-9.50;91.40
70734;DHT22;58320;48.804;9.252;2022-12-18T05:21:19;-9.50;91.50
70734;DHT22;58320;48.804;9.252;2022-12-18T05:23:45;-9.60;91.50
70734;DHT22;58320;48.804;9.252;2022-12-18T05:26:18;-9.60;91.30
70734;DHT22;58320;48.804;9.252;2022-12-18T05:28:45;-9.70;91.00
70734;DHT22;58320;48.804;9.252;2022-12-18T05:31:11;-9.70;91.00
70734;DHT22;58320;48.804;9.252;2022-12-18T05:33:37;-9.70;91.00
70734;DHT22;58320;48.804;9.252;2022-12-18T05:36:05;-9.80;90.60
70734;DHT22;58320;48.804;9.252;2022-12-18T05:38:35;-9.80;90.60
70734;DHT22;58320;48.804;9.252;2022-12-18T05:41:02;-9.80;90.20
70734;DHT22;58320;48.804;9.252;2022-12-18T05:43:29;-9.90;89.80
70734;DHT22;58320;48.804;9.252;2022-12-18T05:45:56;-9.90;89.80
70734;DHT22;58320;48.804;9.252;2022-12-18T05:48:23;-9.90;89.90
70734;DHT22;58320;48.804;9.252;2022-12-18T05:50:50;-10.00;89.90
70734;DHT22;58320;48.804;9.252;2022-12-18T05:53:18;-10.00;89.70
70734;DHT22;58320;48.804;9.252;2022-12-18T05:55:45;-10.10;89.80
70734;DHT22;58320;48.804;9.252;2022-12-18T05:58:12;-10.10;89.80
70734;DHT22;58320;48.804;9.252;2022-12-18T06:00:41;-10.10;89.90
70734;DHT22;58320;48.804;9.252;2022-12-18T06:03:10;-10.20;90.30
70734;DHT22;58320;48.804;9.252;2022-12-18T06:05:42;-10.20;90.50
70734;DHT22;58320;48.804;9.252;2022-12-18T06:08:09;-10.20;90.50
70734;DHT22;58320;48.804;9.252;2022-12-18T06:10:36;-10.10;90.30
70734;DHT22;58320;48.804;9.252;2022-12-18T06:13:03;-10.20;90.30
70734;DHT22;58320;48.804;9.252;2022-12-18T06:15:29;-10.20;90.30
70734;DHT22;58320;48.804;9.252;2022-12-18T06:17:55;-10.10;90.60
70734;DHT22;58320;48.804;9.252;2022-12-18T06:20:21;-10.10;91.00
70734;DHT22;58320;48.804;9.252;2022-12-18T06:22:47;-10.00;90.80
70734;DHT22;58320;48.804;9.252;2022-12-18T06:25:13;-10.10;90.60
70734;DHT22;58320;48.804;9.252;2022-12-18T06:27:39;-10.10;90.30
70734;DHT22;58320;48.804;9.252;2022-12-18T06:30:06;-10.10;89.40
70734;DHT22;58320;48.804;9.252;2022-12-18T06:32:32;-10.20;89.30
70734;DHT22;58320;48.804;9.252;2022-12-18T06:34:58;-10.20;89.10
70734;DHT22;58320;48.804;9.252;2022-12-18T06:37:24;-10.20;89.20
70734;DHT22;58320;48.804;9.252;2022-12-18T06:39:54;-10.30;89.70
70734;DHT22;58320;48.804;9.252;2022-12-18T06:42:22;-10.20;89.80
70734;DHT22;58320;48.804;9.252;2022-12-18T06:44:48;-10.20;89.70
70734;DHT22;58320;48.804;9.252;2022-12-18T06:47:14;-10.20;89.80
70734;DHT22;58320;48.804;9.252;2022-12-18T06:49:39;-10.20;90.10
70734;DHT22;58320;48.804;9.252;2022-12-18T06:52:05;-10.20;89.90
70734;DHT22;58320;48.804;9.252;2022-12-18T06:54:31;-10.30;89.40
70734;DHT22;58320;48.804;9.252;2022-12-18T06:56:57;-10.30;89.20
70734;DHT22;58320;48.804;9.252;2022-12-18T06:59:22;-10.30;89.30
70734;DHT22;58320;48.804;9.252;2022-12-18T07:01:48;-10.30;89.00
70734;DHT22;58320;48.804;9.252;2022-12-18T07:04:14;-10.40;89.30
70734;DHT22;58320;48.804;9.252;2022-12-18T07:06:40;-10.30;89.90
70734;DHT22;58320;48.804;9.252;2022-12-18T07:09:06;-10.30;90.20
70734;DHT22;58320;48.804;9.252;2022-12-18T07:11:34;-10.20;90.00
70734;DHT22;58320;48.804;9.252;2022-12-18T07:14:00;-10.20;89.80
70734;DHT22;58320;48.804;9.252;2022-12-18T07:16:26;-10.20;89.50
70734;DHT22;58320;48.804;9.252;2022-12-18T07:18:56;-10.20;89.50
70734;DHT22;58320;48.804;9.252;2022-12-18T07:21:24;-10.20;89.80
70734;DHT22;58320;48.804;9.252;2022-12-18T07:23:50;-10.10;90.00
70734;DHT22;58320;48.804;9.252;2022-12-18T07:26:19;-10.10;89.60
70734;DHT22;58320;48.804;9.252;2022-12-18T07:28:46;-10.10;89.70
70734;DHT22;58320;48.804;9.252;2022-12-18T07:31:18;-10.00;90.30
70734;DHT22;58320;48.804;9.252;2022-12-18T07:33:45;-9.90;90.30
70734;DHT22;58320;48.804;9.252;2022-12-18T07:36:12;-9.90;90.10
70734;DHT22;58320;48.804;9.252;2022-12-18T07:38:38;-9.80;89.80
70734;DHT22;58320;48.804;9.252;2022-12-18T07:41:10;-9.80;89.40
70734;DHT22;58320;48.804;9.252;2022-12-18T07:43:38;-9.80;89.30
70734;DHT22;58320;48.804;9.252;2022-12-18T07:46:05;-9.80;89.60
70734;DHT22;58320;48.804;9.252;2022-12-18T07:48:31;-9.60;89.80
70734;DHT22;58320;48.804;9.252;2022-12-18T07:51:02;-9.60;89.70
70734;DHT22;58320;48.804;9.252;2022-12-18T07:53:30;-9.50;89.20
70734;DHT22;58320;48.804;9.252;2022-12-18T07:56:01;-9.40;88.60
70734;DHT22;58320;48.804;9.252;2022-12-18T07:58:30;-9.30;88.50
70734;DHT22;58320;48.804;9.252;2022-12-18T08:01:09;-9.20;87.80
70734;DHT22;58320;48.804;9.252;2022-12-18T08:03:36;-9.10;86.10
70734;DHT22;58320;48.804;9.252;2022-12-18T08:06:04;-9.10;86.00
70734;DHT22;58320;48.804;9.252;2022-12-18T08:08:32;-9.00;85.90
70734;DHT22;58320;48.804;9.252;2022-12-18T08:10:59;-9.00;85.30
70734;DHT22;58320;48.804;9.252;2022-12-18T08:13:26;-9.00;85.10
70734;DHT22;58320;48.804;9.252;2022-12-18T08:16:00;-9.00;85.30
70734;DHT22;58320;48.804;9.252;2022-12-18T08:18:31;-8.80;86.20
70734;DHT22;58320;48.804;9.252;2022-12-18T08:21:10;-8.60;85.60
70734;DHT22;58320;48.804;9.252;2022-12-18T08:23:37;-8.50;84.80
70734;DHT22;58320;48.804;9.252;2022-12-18T08:26:03;-8.40;84.70
70734;DHT22;58320;48.804;9.252;2022-12-18T08:28:29;-8.20;84.60
70734;DHT22;58320;48.804;9.252;2022-12-18T08:30:55;-8.10;83.50
70734;DHT22;58320;48.804;9.252;2022-12-18T08:33:21;-8.10;83.40
70734;DHT22;58320;48.804;9.252;2022-12-18T08:35:47;-8.00;83.40
70734;DHT22;58320;48.804;9.252;2022-12-18T08:38:12;-8.10;82.80
70734;DHT22;58320;48.804;9.252;2022-12-18T08:40:38;-8.00;83.30
70734;DHT22;58320;48.804;9.252;2022-12-18T08:43:04;-7.80;83.50
70734;DHT22;58320;48.804;9.252;2022-12-18T08:45:49;-7.70;83.00
70734;DHT22;58320;48.804;9.252;2022-12-18T08:48:14;-7.50;82.30
70734;DHT22;58320;48.804;9.252;2022-12-18T08:50:40;-7.40;82.00
70734;DHT22;58320;48.804;9.252;2022-12-18T08:53:06;-7.30;81.20
70734;DHT22;58320;48.804;9.252;2022-12-18T08:55:32;-7.30;81.30
70734;DHT22;58320;48.804;9.252;2022-12-18T08:57:58;-7.20;80.40
70734;DHT22;58320;48.804;9.252;2022-12-18T09:00:23;-7.10;80.20
70734;DHT22;58320;48.804;9.252;2022-12-18T09:02:49;-7.10;80.40
70734;DHT22;58320;48.804;9.252;2022-12-18T09:05:15;-7.10;80.30
70734;DHT22;58320;48.804;9.252;2022-12-18T09:07:41;-7.20;79.80
70734;DHT22;58320;48.804;9.252;2022-12-18T09:10:07;-7.30;80.30
70734;DHT22;58320;48.804;9.252;2022-12-18T09:12:33;-7.40;81.50
70734;DHT22;58320;48.804;9.252;2022-12-18T09:14:58;-7.30;81.70
70734;DHT22;58320;48.804;9.252;2022-12-18T09:17:24;-7.20;81.90
70734;DHT22;58320;48.804;9.252;2022-12-18T09:19:50;-7.20;82.20
70734;DHT22;58320;48.804;9.252;2022-12-18T09:22:16;-6.90;83.30
70734;DHT22;58320;48.804;9.252;2022-12-18T09:24:42;-6.70;82.50
70734;DHT22;58320;48.804;9.252;2022-12-18T09:27:08;-6.60;81.50
70734;DHT22;58320;48.804;9.252;2022-12-18T09:29:34;-6.50;81.90
70734;DHT22;58320;48.804;9.252;2022-12-18T09:31:59;-6.40;81.20
70734;DHT22;58320;48.804;9.252;2022-12-18T09:34:25;-6.30;81.90
70734;DHT22;58320;48.804;9.252;2022-12-18T09:36:51;-6.20;80.80
70734;DHT22;58320;48.804;9.252;2022-12-18T09:39:16;-5.90;81.40
70734;DHT22;58320;48.804;9.252;2022-12-18T09:41:54;-5.70;81.10
70734;DHT22;58320;48.804;9.252;2022-12-18T09:49:47;-5.00;80.30
70734;DHT22;58320;48.804;9.252;2022-12-18T09:52:29;-4.70;80.10
70734;DHT22;58320;48.804;9.252;2022-12-18T09:57:40;-4.60;76.80
70734;DHT22;58320;48.804;9.252;2022-12-18T10:00:22;-4.50;76.80
70734;DHT22;58320;48.804;9.252;2022-12-18T10:02:52;-4.50;76.70
70734;DHT22;58320;48.804;9.252;2022-12-18T10:10:52;-4.00;75.80
70734;DHT22;58320;48.804;9.252;2022-12-18T10:13:34;-3.90;76.00
70734;DHT22;58320;48.804;9.252;2022-12-18T10:16:17;-3.80;76.30
70734;DHT22;58320;48.804;9.252;2022-12-18T10:19:32;-3.70;75.10
70734;DHT22;58320;48.804;9.252;2022-12-18T10:22:10;-3.80;73.80
70734;DHT22;58320;48.804;9.252;2022-12-18T10:27:35;-3.70;74.80
70734;DHT22;58320;48.804;9.252;2022-12-18T10:30:12;-3.50;75.50
70734;DHT22;58320;48.804;9.252;2022-12-18T10:32:40;-3.40;75.30
70734;DHT22;58320;48.804;9.252;2022-12-18T10:35:15;-3.20;75.20
70734;DHT22;58320;48.804;9.252;2022-12-18T10:43:30;-2.60;73.20
70734;DHT22;58320;48.804;9.252;2022-12-18T10:48:55;-1.90;71.70
70734;DHT22;58320;48.804;9.252;2022-12-18T10:51:31;-1.60;67.50
70734;DHT22;58320;48.804;9.252;2022-12-18T10:54:01;-0.70;66.30
70734;DHT22;58320;48.804;9.252;2022-12-18T10:56:46;-0.20;63.60
70734;DHT22;58320;48.804;9.252;2022-12-18T10:59:14;-0.10;61.90
70734;DHT22;58320;48.804;9.252;2022-12-18T11:01:53;0.00;61.10
70734;DHT22;58320;48.804;9.252;2022-12-18T11:04:31;0.10;62.10
70734;DHT22;58320;48.804;9.252;2022-12-18T11:07:07;0.30;61.50
70734;DHT22;58320;48.804;9.252;2022-12-18T11:09:38;1.10;59.10
70734;DHT22;58320;48.804;9.252;2022-12-18T11:12:19;1.20;57.40
70734;DHT22;58320;48.804;9.252;2022-12-18T11:14:52;0.70;58.70
70734;DHT22;58320;48.804;9.252;2022-12-18T11:17:40;1.00;59.80
70734;DHT22;58320;48.804;9.252;2022-12-18T11:23:12;1.80;57.50
70734;DHT22;58320;48.804;9.252;2022-12-18T11:25:39;2.60;54.00
70734;DHT22;58320;48.804;9.252;2022-12-18T11:31:25;3.00;52.60
70734;DHT22;58320;48.804;9.252;2022-12-18T11:34:26;3.80;52.20
70734;DHT22;58320;48.804;9.252;2022-12-18T11:36:54;4.50;49.40
70734;DHT22;58320;48.804;9.252;2022-12-18T11:44:57;5.40;46.90
70734;DHT22;58320;48.804;9.252;2022-12-18T11:50:18;5.70;44.80
70734;DHT22;58320;48.804;9.252;2022-12-18T11:52:57;5.20;45.00
70734;DHT22;58320;48.804;9.252;2022-12-18T12:15:27;5.80;45.70
70734;DHT22;58320;48.804;9.252;2022-12-18T12:26:42;5.00;47.40
70734;DHT22;58320;48.804;9.252;2022-12-18T12:38:18;4.10;48.80
70734;DHT22;58320;48.804;9.252;2022-12-18T12:43:43;3.50;50.90
70734;DHT22;58320;48.804;9.252;2022-12-18T12:46:12;3.10;52.10
70734;DHT22;58320;48.804;9.252;2022-12-18T12:52:10;2.40;53.80
70734;DHT22;58320;48.804;9.252;2022-12-18T12:54:37;2.40;54.10
70734;DHT22;58320;48.804;9.252;2022-12-18T12:57:17;2.40;53.80
70734;DHT22;58320;48.804;9.252;2022-12-18T13:02:54;2.50;54.30
70734;DHT22;58320;48.804;9.252;2022-12-18T13:05:26;2.50;54.20
70734;DHT22;58320;48.804;9.252;2022-12-18T13:08:01;2.40;54.60
70734;DHT22;58320;48.804;9.252;2022-12-18T13:10:42;2.40;54.70
70734;DHT22;58320;48.804;9.252;2022-12-18T13:13:12;2.30;55.10
70734;DHT22;58320;48.804;9.252;2022-12-18T13:15:48;2.10;55.60
70734;DHT22;58320;48.804;9.252;2022-12-18T13:18:29;2.00;56.20
70734;DHT22;58320;48.804;9.252;2022-12-18T13:34:23;1.00;60.00
70734;DHT22;58320;48.804;9.252;2022-12-18T13:36:51;1.00;60.00
70734;DHT22;58320;48.804;9.252;2022-12-18T13:41:45;1.00;60.90
70734;DHT22;58320;48.804;9.252;2022-12-18T13:44:25;1.00;61.10
70734;DHT22;58320;48.804;9.252;2022-12-18T13:47:00;1.10;60.40
70734;DHT22;58320;48.804;9.252;2022-12-18T13:49:43;1.10;60.60
70734;DHT22;58320;48.804;9.252;2022-12-18T13:52:23;1.00;60.90
70734;DHT22;58320;48.804;9.252;2022-12-18T13:54:53;0.90;61.30
70734;DHT22;58320;48.804;9.252;2022-12-18T13:57:31;0.90;61.60
70734;DHT22;58320;48.804;9.252;2022-12-18T14:02:45;0.80;61.80
70734;DHT22;58320;48.804;9.252;2022-12-18T14:05:32;0.50;62.60
70734;DHT22;58320;48.804;9.252;2022-12-18T14:08:07;0.50;63.20
70734;DHT22;58320;48.804;9.252;2022-12-18T14:10:35;0.40;63.20
70734;DHT22;58320;48.804;9.252;2022-12-18T14:13:09;0.40;63.40
70734;DHT22;58320;48.804;9.252;2022-12-18T14:15:41;0.30;63.60
70734;DHT22;58320;48.804;9.252;2022-12-18T14:20:52;0.00;65.00
70734;DHT22;58320;48.804;9.252;2022-12-18T14:23:38;-0.10;65.30
70734;DHT22;58320;48.804;9.252;2022-12-18T14:26:25;-0.20;66.30
70734;DHT22;58320;48.804;9.252;2022-12-18T14:28:56;-0.50;67.20
70734;DHT22;58320;48.804;9.252;2022-12-18T14:31:24;-0.70;68.40
70734;DHT22;58320;48.804;9.252;2022-12-18T14:33:52;-0.90;69.30
70734;DHT22;58320;48.804;9.252;2022-12-18T14:36:27;-1.00;70.30
70734;DHT22;58320;48.804;9.252;2022-12-18T14:38:55;-1.20;71.20
70734;DHT22;58320;48.804;9.252;2022-12-18T14:41:24;-1.30;72.00
70734;DHT22;58320;48.804;9.252;2022-12-18T14:43:52;-1.40;72.50
70734;DHT22;58320;48.804;9.252;2022-12-18T14:46:36;-1.50;73.50
70734;DHT22;58320;48.804;9.252;2022-12-18T14:51:55;-1.70;74.40
70734;DHT22;58320;48.804;9.252;2022-12-18T14:54:24;-1.80;75.00
70734;DHT22;58320;48.804;9.252;2022-12-18T14:57:00;-1.80;74.70
70734;DHT22;58320;48.804;9.252;2022-12-18T14:59:28;-1.90;75.10
70734;DHT22;58320;48.804;9.252;2022-12-18T15:02:08;-2.00;75.30
70734;DHT22;58320;48.804;9.252;2022-12-18T15:04:41;-2.00;75.80
70734;DHT22;58320;48.804;9.252;2022-12-18T15:07:23;-2.10;76.20
70734;DHT22;58320;48.804;9.252;2022-12-18T15:12:46;-2.30;77.00
70734;DHT22;58320;48.804;9.252;2022-12-18T15:26:06;-2.90;81.50
70734;DHT22;58320;48.804;9.252;2022-12-18T15:28:59;-2.90;81.50
70734;DHT22;58320;48.804;9.252;2022-12-18T15:31:33;-3.00;82.20
70734;DHT22;58320;48.804;9.252;2022-12-18T15:34:12;-3.10;82.80
70734;DHT22;58320;48.804;9.252;2022-12-18T15:36:44;-3.20;83.30
70734;DHT22;58320;48.804;9.252;2022-12-18T15:39:11;-3.20;83.70
70734;DHT22;58320;48.804;9.252;2022-12-18T15:41:39;-3.30;83.90
70734;DHT22;58320;48.804;9.252;2022-12-18T15:44:25;-3.30;84.20
70734;DHT22;58320;48.804;9.252;2022-12-18T15:46:51;-3.40;84.10
70734;DHT22;58320;48.804;9.252;2022-12-18T15:49:17;-3.40;84.50
70734;DHT22;58320;48.804;9.252;2022-12-18T15:51:43;-3.50;84.60
70734;DHT22;58320;48.804;9.252;2022-12-18T15:54:13;-3.50;84.60
70734;DHT22;58320;48.804;9.252;2022-12-18T15:56:41;-3.60;84.80
70734;DHT22;58320;48.804;9.252;2022-12-18T15:59:27;-3.60;85.10
70734;DHT22;58320;48.804;9.252;2022-12-18T16:01:53;-3.60;85.40
70734;DHT22;58320;48.804;9.252;2022-12-18T16:04:21;-3.70;85.60
70734;DHT22;58320;48.804;9.252;2022-12-18T16:06:48;-3.70;86.50
70734;DHT22;58320;48.804;9.252;2022-12-18T16:09:14;-3.80;86.70
70734;DHT22;58320;48.804;9.252;2022-12-18T16:11:42;-3.80;86.80
70734;DHT22;58320;48.804;9.252;2022-12-18T16:14:18;-3.80;87.10
70734;DHT22;58320;48.804;9.252;2022-12-18T16:16:52;-3.80;87.50
70734;DHT22;58320;48.804;9.252;2022-12-18T16:19:21;-3.80;87.50
70734;DHT22;58320;48.804;9.252;2022-12-18T16:21:48;-3.80;87.80
70734;DHT22;58320;48.804;9.252;2022-12-18T16:24:17;-3.80;87.90
70734;DHT22;58320;48.804;9.252;2022-12-18T16:26:44;-3.80;87.90
70734;DHT22;58320;48.804;9.252;2022-12-18T16:29:10;-3.80;87.90
70734;DHT22;58320;48.804;9.252;2022-12-18T16:31:37;-3.80;88.10
70734;DHT22;58320;48.804;9.252;2022-12-18T16:34:18;-3.80;88.00
70734;DHT22;58320;48.804;9.252;2022-12-18T16:36:52;-3.80;87.90
70734;DHT22;58320;48.804;9.252;2022-12-18T16:39:19;-3.90;88.00
70734;DHT22;58320;48.804;9.252;2022-12-18T16:41:45;-3.90;88.10
70734;DHT22;58320;48.804;9.252;2022-12-18T16:44:12;-3.90;88.10
70734;DHT22;58320;48.804;9.252;2022-12-18T16:46:39;-3.90;88.30
70734;DHT22;58320;48.804;9.252;2022-12-18T16:49:08;-3.80;88.30
70734;DHT22;58320;48.804;9.252;2022-12-18T16:51:35;-3.80;88.10
70734;DHT22;58320;48.804;9.252;2022-12-18T16:54:01;-3.80;87.90
70734;DHT22;58320;48.804;9.252;2022-12-18T16:56:27;-3.70;87.70
70734;DHT22;58320;48.804;9.252;2022-12-18T16:58:57;-3.70;87.50
70734;DHT22;58320;48.804;9.252;2022-12-18T17:01:24;-3.70;87.60
70734;DHT22;58320;48.804;9.252;2022-12-18T17:06:29;-3.70;87.40
70734;DHT22;58320;48.804;9.252;2022-12-18T17:09:04;-3.70;87.30
70734;DHT22;58320;48.804;9.252;2022-12-18T17:11:32;-3.70;87.40
70734;DHT22;58320;48.804;9.252;2022-12-18T17:14:04;-3.70;87.60
70734;DHT22;58320;48.804;9.252;2022-12-18T17:16:31;-3.70;87.80
70734;DHT22;58320;48.804;9.252;2022-12-18T17:18:57;-3.60;87.60
70734;DHT22;58320;48.804;9.252;2022-12-18T17:21:23;-3.60;87.40
70734;DHT22;58320;48.804;9.252;2022-12-18T17:23:49;-3.60;87.20
70734;DHT22;58320;48.804;9.252;2022-12-18T17:26:15;-3.50;87.00
70734;DHT22;58320;48.804;9.252;2022-12-18T17:28:41;-3.50;86.70
70734;DHT22;58320;48.804;9.252;2022-12-18T17:31:21;-3.50;86.80
70734;DHT22;58320;48.804;9.252;2022-12-18T17:33:48;-3.50;86.50
70734;DHT22;58320;48.804;9.252;2022-12-18T17:36:14;-3.50;86.30
70734;DHT22;58320;48.804;9.252;2022-12-18T17:38:41;-3.50;86.10
70734;DHT22;58320;48.804;9.252;2022-12-18T17:41:09;-3.50;86.10
70734;DHT22;58320;48.804;9.252;2022-12-18T17:43:36;-3.50;86.20
70734;DHT22;58320;48.804;9.252;2022-12-18T17:46:11;-3.50;86.00
70734;DHT22;58320;48.804;9.252;2022-12-18T17:48:38;-3.50;85.90
70734;DHT22;58320;48.804;9.252;2022-12-18T17:51:06;-3.40;85.60
70734;DHT22;58320;48.804;9.252;2022-12-18T17:53:33;-3.40;85.40
70734;DHT22;58320;48.804;9.252;2022-12-18T17:56:00;-3.40;85.50
70734;DHT22;58320;48.804;9.252;2022-12-18T17:58:27;-3.40;84.90
70734;DHT22;58320;48.804;9.252;2022-12-18T18:00:53;-3.30;84.30
70734;DHT22;58320;48.804;9.252;2022-12-18T18:03:19;-3.30;83.90
70734;DHT22;58320;48.804;9.252;2022-12-18T18:05:45;-3.30;83.30
70734;DHT22;58320;48.804;9.252;2022-12-18T18:08:11;-3.20;83.50
70734;DHT22;58320;48.804;9.252;2022-12-18T18:10:38;-3.20;83.30
70734;DHT22;58320;48.804;9.252;2022-12-18T18:13:15;-3.20;83.60
70734;DHT22;58320;48.804;9.252;2022-12-18T18:16:02;-3.20;83.10
70734;DHT22;58320;48.804;9.252;2022-12-18T18:18:29;-3.20;82.50
70734;DHT22;58320;48.804;9.252;2022-12-18T18:20:55;-3.20;82.40
70734;DHT22;58320;48.804;9.252;2022-12-18T18:23:21;-3.20;81.60
70734;DHT22;58320;48.804;9.252;2022-12-18T18:25:51;-3.10;81.80
70734;DHT22;58320;48.804;9.252;2022-12-18T18:28:17;-3.10;81.70
70734;DHT22;58320;48.804;9.252;2022-12-18T18:30:43;-3.10;81.40
70734;DHT22;58320;48.804;9.252;2022-12-18T18:33:08;-3.10;81.50